sensor_id;sensor_type;location;lat;lon;timestamp;P1;durP1;ratioP1;P2;durP2;ratioP2
74196;SDS011;62555;52.678;4.900;2024-03-02T00:01:47;1.63;;;1.20;;
74196;SDS011;62555;52.678;4.900;2024-03-02T00:04:12;0.97;;;0.70;;
74196;SDS011;62555;52.678;4.900;2024-03-02T00:06:37;1.08;;;1.00;;
74196;SDS011;62555;52.678;4.900;2024-03-02T00:09:02;1.98;;;1.08;;
74196;SDS011;62555;52.678;4.900;2024-03-02T00:11:28;1.83;;;1.02;;
74196;SDS011;62555;52.678;4.900;2024-03-02T00:13:53;1.83;;;1.00;;
74196;SDS011;62555;52.678;4.900;2024-03-02T00:16:19;2.13;;;0.80;;
74196;SDS011;62555;52.678;4.900;2024-03-02T00:18:45;1.10;;;0.80;;
74196;SDS011;62555;52.678;4.900;2024-03-02T00:21:10;2.10;;;0.97;;
74196;SDS011;62555;52.678;4.900;2024-03-02T00:23:35;2.20;;;0.90;;
74196;SDS011;62555;52.678;4.900;2024-03-02T00:26:01;1.27;;;0.68;;
74196;SDS011;62555;52.678;4.900;2024-03-02T00:28:30;0.82;;;0.70;;
74196;SDS011;62555;52.678;4.900;2024-03-02T00:33:28;1.33;;;1.02;;
74196;SDS011;62555;52.678;4.900;2024-03-02T00:35:55;3.10;;;1.05;;
74196;SDS011;62555;52.678;4.900;2024-03-02T00:38:20;1.73;;;1.13;;
74196;SDS011;62555;52.678;4.900;2024-03-02T00:40:45;1.10;;;0.90;;
74196;SDS011;62555;52.678;4.900;2024-03-02T00:43:56;1.27;;;0.80;;
74196;SDS011;62555;52.678;4.900;2024-03-02T00:45:56;1.10;;;0.60;;
74196;SDS011;62555;52.678;4.900;2024-03-02T00:48:22;1.85;;;0.98;;
74196;SDS011;62555;52.678;4.900;2024-03-02T00:50:50;1.40;;;0.90;;
74196;SDS011;62555;52.678;4.900;2024-03-02T00:53:16;1.88;;;0.80;;
74196;SDS011;62555;52.678;4.900;2024-03-02T00:55:42;1.80;;;0.90;;
74196;SDS011;62555;52.678;4.900;2024-03-02T00:58:12;1.52;;;0.90;;
74196;SDS011;62555;52.678;4.900;2024-03-02T01:00:37;1.20;;;0.77;;
74196;SDS011;62555;52.678;4.900;2024-03-02T01:03:02;2.20;;;1.33;;
74196;SDS011;62555;52.678;4.900;2024-03-02T01:05:29;1.35;;;0.70;;
74196;SDS011;62555;52.678;4.900;2024-03-02T01:07:54;0.90;;;0.70;;
74196;SDS011;62555;52.678;4.900;2024-03-02T01:10:19;1.77;;;1.00;;
74196;SDS011;62555;52.678;4.900;2024-03-02T01:12:45;1.27;;;0.73;;
74196;SDS011;62555;52.678;4.900;2024-03-02T01:15:10;1.07;;;0.93;;
74196;SDS011;62555;52.678;4.900;2024-03-02T01:17:36;2.85;;;1.00;;
74196;SDS011;62555;52.678;4.900;2024-03-02T01:20:01;1.83;;;0.90;;
74196;SDS011;62555;52.678;4.900;2024-03-02T01:22:26;1.97;;;0.70;;
74196;SDS011;62555;52.678;4.900;2024-03-02T01:24:51;1.90;;;0.83;;
74196;SDS011;62555;52.678;4.900;2024-03-02T01:27:17;1.17;;;0.80;;
74196;SDS011;62555;52.678;4.900;2024-03-02T01:29:42;1.83;;;0.70;;
74196;SDS011;62555;52.678;4.900;2024-03-02T01:32:07;1.63;;;0.87;;
74196;SDS011;62555;52.678;4.900;2024-03-02T01:34:32;1.53;;;0.80;;
74196;SDS011;62555;52.678;4.900;2024-03-02T01:36:57;1.33;;;0.80;;
74196;SDS011;62555;52.678;4.900;2024-03-02T01:39:22;1.50;;;0.80;;
74196;SDS011;62555;52.678;4.900;2024-03-02T01:41:48;0.87;;;0.50;;
74196;SDS011;62555;52.678;4.900;2024-03-02T01:44:13;1.47;;;1.07;;
74196;SDS011;62555;52.678;4.900;2024-03-02T01:46:38;0.90;;;0.80;;
74196;SDS011;62555;52.678;4.900;2024-03-02T01:49:03;1.53;;;1.07;;
74196;SDS011;62555;52.678;4.900;2024-03-02T01:51:29;1.52;;;0.85;;
74196;SDS011;62555;52.678;4.900;2024-03-02T01:53:54;1.87;;;0.77;;
74196;SDS011;62555;52.678;4.900;2024-03-02T01:56:20;1.55;;;0.57;;
74196;SDS011;62555;52.678;4.900;2024-03-02T01:58:45;2.10;;;0.60;;
74196;SDS011;62555;52.678;4.900;2024-03-02T02:01:10;0.90;;;0.60;;
74196;SDS011;62555;52.678;4.900;2024-03-02T02:03:35;1.42;;;0.70;;
74196;SDS011;62555;52.678;4.900;2024-03-02T02:06:02;0.95;;;0.75;;
74196;SDS011;62555;52.678;4.900;2024-03-02T02:08:27;1.43;;;1.33;;
74196;SDS011;62555;52.678;4.900;2024-03-02T02:10:52;0.83;;;0.63;;
74196;SDS011;62555;52.678;4.900;2024-03-02T02:13:17;0.70;;;0.60;;
74196;SDS011;62555;52.678;4.900;2024-03-02T02:15:43;1.42;;;0.40;;
74196;SDS011;62555;52.678;4.900;2024-03-02T02:18:08;1.10;;;0.50;;
74196;SDS011;62555;52.678;4.900;2024-03-02T02:20:33;1.07;;;0.60;;
74196;SDS011;62555;52.678;4.900;2024-03-02T02:22:59;1.70;;;0.57;;
74196;SDS011;62555;52.678;4.900;2024-03-02T02:25:24;1.67;;;0.60;;
74196;SDS011;62555;52.678;4.900;2024-03-02T02:27:50;0.80;;;0.50;;
74196;SDS011;62555;52.678;4.900;2024-03-02T02:30:23;0.57;;;0.50;;
74196;SDS011;62555;52.678;4.900;2024-03-02T02:32:49;1.08;;;0.73;;
74196;SDS011;62555;52.678;4.900;2024-03-02T02:35:14;1.00;;;0.67;;
74196;SDS011;62555;52.678;4.900;2024-03-02T02:37:39;1.13;;;0.80;;
74196;SDS011;62555;52.678;4.900;2024-03-02T02:40:05;1.10;;;0.63;;
74196;SDS011;62555;52.678;4.900;2024-03-02T02:42:30;0.50;;;0.40;;
74196;SDS011;62555;52.678;4.900;2024-03-02T02:44:55;1.03;;;0.40;;
74196;SDS011;62555;52.678;4.900;2024-03-02T02:47:20;1.03;;;0.50;;
74196;SDS011;62555;52.678;4.900;2024-03-02T02:49:46;0.50;;;0.30;;
74196;SDS011;62555;52.678;4.900;2024-03-02T02:52:11;1.00;;;0.50;;
74196;SDS011;62555;52.678;4.900;2024-03-02T02:54:37;0.80;;;0.40;;
74196;SDS011;62555;52.678;4.900;2024-03-02T02:57:02;0.85;;;0.32;;
74196;SDS011;62555;52.678;4.900;2024-03-02T02:59:28;0.68;;;0.50;;
74196;SDS011;62555;52.678;4.900;2024-03-02T03:01:53;0.93;;;0.50;;
74196;SDS011;62555;52.678;4.900;2024-03-02T03:04:18;0.73;;;0.47;;
74196;SDS011;62555;52.678;4.900;2024-03-02T03:06:43;1.03;;;0.50;;
74196;SDS011;62555;52.678;4.900;2024-03-02T03:09:09;0.90;;;0.60;;
74196;SDS011;62555;52.678;4.900;2024-03-02T03:11:36;0.40;;;0.30;;
74196;SDS011;62555;52.678;4.900;2024-03-02T03:14:01;0.40;;;0.40;;
74196;SDS011;62555;52.678;4.900;2024-03-02T03:16:26;1.80;;;1.10;;
74196;SDS011;62555;52.678;4.900;2024-03-02T03:18:51;0.53;;;0.47;;
74196;SDS011;62555;52.678;4.900;2024-03-02T03:21:18;1.02;;;0.40;;
74196;SDS011;62555;52.678;4.900;2024-03-02T03:23:43;0.80;;;0.23;;
74196;SDS011;62555;52.678;4.900;2024-03-02T03:26:08;0.70;;;0.40;;
74196;SDS011;62555;52.678;4.900;2024-03-02T03:28:33;0.37;;;0.30;;
74196;SDS011;62555;52.678;4.900;2024-03-02T03:30:59;0.30;;;0.30;;
74196;SDS011;62555;52.678;4.900;2024-03-02T03:33:24;0.70;;;0.60;;
74196;SDS011;62555;52.678;4.900;2024-03-02T03:35:49;1.33;;;0.50;;
74196;SDS011;62555;52.678;4.900;2024-03-02T03:38:14;1.13;;;0.40;;
74196;SDS011;62555;52.678;4.900;2024-03-02T03:40:39;0.73;;;0.60;;
74196;SDS011;62555;52.678;4.900;2024-03-02T03:43:04;0.77;;;0.47;;
74196;SDS011;62555;52.678;4.900;2024-03-02T03:45:30;0.43;;;0.43;;
74196;SDS011;62555;52.678;4.900;2024-03-02T03:47:55;0.57;;;0.40;;
74196;SDS011;62555;52.678;4.900;2024-03-02T03:50:20;0.50;;;0.50;;
74196;SDS011;62555;52.678;4.900;2024-03-02T03:52:46;0.20;;;0.20;;
74196;SDS011;62555;52.678;4.900;2024-03-02T03:55:11;0.43;;;0.23;;
74196;SDS011;62555;52.678;4.900;2024-03-02T03:57:36;0.50;;;0.50;;
74196;SDS011;62555;52.678;4.900;2024-03-02T04:00:01;1.23;;;0.40;;
74196;SDS011;62555;52.678;4.900;2024-03-02T04:02:26;0.47;;;0.22;;
74196;SDS011;62555;52.678;4.900;2024-03-02T04:04:52;0.40;;;0.30;;
74196;SDS011;62555;52.678;4.900;2024-03-02T04:07:17;0.60;;;0.40;;
74196;SDS011;62555;52.678;4.900;2024-03-02T04:09:43;0.60;;;0.20;;
74196;SDS011;62555;52.678;4.900;2024-03-02T04:12:08;0.40;;;0.40;;
74196;SDS011;62555;52.678;4.900;2024-03-02T04:14:33;0.80;;;0.30;;
74196;SDS011;62555;52.678;4.900;2024-03-02T04:16:58;0.77;;;0.53;;
74196;SDS011;62555;52.678;4.900;2024-03-02T04:19:23;0.30;;;0.30;;
74196;SDS011;62555;52.678;4.900;2024-03-02T04:21:48;0.33;;;0.30;;
74196;SDS011;62555;52.678;4.900;2024-03-02T04:24:14;0.50;;;0.40;;
74196;SDS011;62555;52.678;4.900;2024-03-02T04:26:39;0.63;;;0.50;;
74196;SDS011;62555;52.678;4.900;2024-03-02T04:29:04;0.93;;;0.50;;
74196;SDS011;62555;52.678;4.900;2024-03-02T04:31:29;0.50;;;0.30;;
74196;SDS011;62555;52.678;4.900;2024-03-02T04:33:54;0.40;;;0.40;;
74196;SDS011;62555;52.678;4.900;2024-03-02T04:36:20;0.83;;;0.83;;
74196;SDS011;62555;52.678;4.900;2024-03-02T04:38:46;0.55;;;0.40;;
74196;SDS011;62555;52.678;4.900;2024-03-02T04:41:11;0.60;;;0.40;;
74196;SDS011;62555;52.678;4.900;2024-03-02T04:43:36;0.87;;;0.77;;
74196;SDS011;62555;52.678;4.900;2024-03-02T04:46:01;0.40;;;0.40;;
74196;SDS011;62555;52.678;4.900;2024-03-02T04:48:26;1.63;;;0.43;;
74196;SDS011;62555;52.678;4.900;2024-03-02T04:50:52;0.63;;;0.57;;
74196;SDS011;62555;52.678;4.900;2024-03-02T04:53:17;0.60;;;0.50;;
74196;SDS011;62555;52.678;4.900;2024-03-02T04:55:42;0.70;;;0.50;;
74196;SDS011;62555;52.678;4.900;2024-03-02T04:58:07;0.60;;;0.60;;
74196;SDS011;62555;52.678;4.900;2024-03-02T05:00:32;0.70;;;0.47;;
74196;SDS011;62555;52.678;4.900;2024-03-02T05:02:58;0.70;;;0.40;;
74196;SDS011;62555;52.678;4.900;2024-03-02T05:05:23;1.80;;;0.57;;
74196;SDS011;62555;52.678;4.900;2024-03-02T05:07:48;0.50;;;0.50;;
74196;SDS011;62555;52.678;4.900;2024-03-02T05:10:13;0.20;;;0.20;;
74196;SDS011;62555;52.678;4.900;2024-03-02T05:12:39;0.75;;;0.30;;
74196;SDS011;62555;52.678;4.900;2024-03-02T05:15:07;0.60;;;0.60;;
74196;SDS011;62555;52.678;4.900;2024-03-02T05:17:33;0.70;;;0.52;;
74196;SDS011;62555;52.678;4.900;2024-03-02T05:19:58;0.43;;;0.40;;
74196;SDS011;62555;52.678;4.900;2024-03-02T05:22:23;0.57;;;0.50;;
74196;SDS011;62555;52.678;4.900;2024-03-02T05:24:48;0.70;;;0.30;;
74196;SDS011;62555;52.678;4.900;2024-03-02T05:27:14;0.87;;;0.70;;
74196;SDS011;62555;52.678;4.900;2024-03-02T05:29:39;0.57;;;0.40;;
74196;SDS011;62555;52.678;4.900;2024-03-02T05:32:04;0.40;;;0.40;;
74196;SDS011;62555;52.678;4.900;2024-03-02T05:34:30;0.50;;;0.50;;
74196;SDS011;62555;52.678;4.900;2024-03-02T05:36:57;1.02;;;0.50;;
74196;SDS011;62555;52.678;4.900;2024-03-02T05:39:23;0.40;;;0.40;;
74196;SDS011;62555;52.678;4.900;2024-03-02T05:41:48;0.60;;;0.30;;
74196;SDS011;62555;52.678;4.900;2024-03-02T05:44:13;0.40;;;0.37;;
74196;SDS011;62555;52.678;4.900;2024-03-02T05:46:40;0.95;;;0.40;;
74196;SDS011;62555;52.678;4.900;2024-03-02T05:49:05;0.50;;;0.50;;
74196;SDS011;62555;52.678;4.900;2024-03-02T05:51:32;0.30;;;0.30;;
74196;SDS011;62555;52.678;4.900;2024-03-02T05:53:57;0.73;;;0.50;;
74196;SDS011;62555;52.678;4.900;2024-03-02T05:56:23;1.00;;;0.50;;
74196;SDS011;62555;52.678;4.900;2024-03-02T05:58:48;0.53;;;0.40;;
74196;SDS011;62555;52.678;4.900;2024-03-02T06:01:31;0.50;;;0.40;;
74196;SDS011;62555;52.678;4.900;2024-03-02T06:03:57;0.30;;;0.30;;
74196;SDS011;62555;52.678;4.900;2024-03-02T06:06:23;0.40;;;0.40;;
74196;SDS011;62555;52.678;4.900;2024-03-02T06:08:48;0.40;;;0.30;;
74196;SDS011;62555;52.678;4.900;2024-03-02T06:11:14;0.87;;;0.47;;
74196;SDS011;62555;52.678;4.900;2024-03-02T06:13:39;1.00;;;0.33;;
74196;SDS011;62555;52.678;4.900;2024-03-02T06:16:04;0.60;;;0.30;;
74196;SDS011;62555;52.678;4.900;2024-03-02T06:18:29;0.50;;;0.30;;
74196;SDS011;62555;52.678;4.900;2024-03-02T06:20:55;1.03;;;0.80;;
74196;SDS011;62555;52.678;4.900;2024-03-02T06:23:20;0.43;;;0.40;;
74196;SDS011;62555;52.678;4.900;2024-03-02T06:25:45;0.50;;;0.50;;
74196;SDS011;62555;52.678;4.900;2024-03-02T06:28:10;0.50;;;0.50;;
74196;SDS011;62555;52.678;4.900;2024-03-02T06:30:35;1.50;;;0.37;;
74196;SDS011;62555;52.678;4.900;2024-03-02T06:33:00;0.70;;;0.67;;
74196;SDS011;62555;52.678;4.900;2024-03-02T06:35:26;0.40;;;0.27;;
74196;SDS011;62555;52.678;4.900;2024-03-02T06:37:51;0.83;;;0.50;;
74196;SDS011;62555;52.678;4.900;2024-03-02T06:40:16;0.40;;;0.40;;
74196;SDS011;62555;52.678;4.900;2024-03-02T06:42:41;0.75;;;0.50;;
74196;SDS011;62555;52.678;4.900;2024-03-02T06:45:06;0.80;;;0.80;;
74196;SDS011;62555;52.678;4.900;2024-03-02T06:47:32;0.68;;;0.50;;
74196;SDS011;62555;52.678;4.900;2024-03-02T06:49:57;0.93;;;0.40;;
74196;SDS011;62555;52.678;4.900;2024-03-02T06:52:23;0.73;;;0.38;;
74196;SDS011;62555;52.678;4.900;2024-03-02T06:54:48;0.30;;;0.30;;
74196;SDS011;62555;52.678;4.900;2024-03-02T06:57:14;0.20;;;0.20;;
74196;SDS011;62555;52.678;4.900;2024-03-02T06:59:39;0.40;;;0.40;;
74196;SDS011;62555;52.678;4.900;2024-03-02T07:02:04;1.37;;;0.53;;
74196;SDS011;62555;52.678;4.900;2024-03-02T07:04:29;0.43;;;0.30;;
74196;SDS011;62555;52.678;4.900;2024-03-02T07:06:54;0.45;;;0.30;;
74196;SDS011;62555;52.678;4.900;2024-03-02T07:09:20;0.70;;;0.40;;
74196;SDS011;62555;52.678;4.900;2024-03-02T07:11:47;0.68;;;0.40;;
74196;SDS011;62555;52.678;4.900;2024-03-02T07:14:12;0.97;;;0.30;;
74196;SDS011;62555;52.678;4.900;2024-03-02T07:16:38;0.97;;;0.40;;
74196;SDS011;62555;52.678;4.900;2024-03-02T07:19:04;0.30;;;0.30;;
74196;SDS011;62555;52.678;4.900;2024-03-02T07:21:30;1.27;;;0.60;;
74196;SDS011;62555;52.678;4.900;2024-03-02T07:23:55;0.47;;;0.30;;
74196;SDS011;62555;52.678;4.900;2024-03-02T07:26:20;0.50;;;0.50;;
74196;SDS011;62555;52.678;4.900;2024-03-02T07:28:45;1.07;;;0.30;;
74196;SDS011;62555;52.678;4.900;2024-03-02T07:31:11;1.25;;;0.73;;
74196;SDS011;62555;52.678;4.900;2024-03-02T07:33:36;0.40;;;0.40;;
74196;SDS011;62555;52.678;4.900;2024-03-02T07:36:01;0.40;;;0.40;;
74196;SDS011;62555;52.678;4.900;2024-03-02T07:38:27;0.20;;;0.20;;
74196;SDS011;62555;52.678;4.900;2024-03-02T07:40:53;0.28;;;0.28;;
74196;SDS011;62555;52.678;4.900;2024-03-02T07:43:18;0.30;;;0.30;;
74196;SDS011;62555;52.678;4.900;2024-03-02T07:45:44;0.40;;;0.40;;
74196;SDS011;62555;52.678;4.900;2024-03-02T07:48:09;0.50;;;0.50;;
74196;SDS011;62555;52.678;4.900;2024-03-02T07:50:34;0.60;;;0.27;;
74196;SDS011;62555;52.678;4.900;2024-03-02T07:53:00;0.70;;;0.30;;
74196;SDS011;62555;52.678;4.900;2024-03-02T07:55:25;0.50;;;0.47;;
74196;SDS011;62555;52.678;4.900;2024-03-02T07:57:51;0.53;;;0.47;;
74196;SDS011;62555;52.678;4.900;2024-03-02T08:00:16;0.70;;;0.40;;
74196;SDS011;62555;52.678;4.900;2024-03-02T08:02:41;0.80;;;0.60;;
74196;SDS011;62555;52.678;4.900;2024-03-02T08:05:07;0.63;;;0.60;;
74196;SDS011;62555;52.678;4.900;2024-03-02T08:07:32;0.47;;;0.38;;
74196;SDS011;62555;52.678;4.900;2024-03-02T08:09:58;0.20;;;0.20;;
74196;SDS011;62555;52.678;4.900;2024-03-02T08:12:23;0.70;;;0.60;;
74196;SDS011;62555;52.678;4.900;2024-03-02T08:14:48;0.60;;;0.30;;
74196;SDS011;62555;52.678;4.900;2024-03-02T08:17:13;0.80;;;0.30;;
74196;SDS011;62555;52.678;4.900;2024-03-02T08:19:38;0.87;;;0.50;;
74196;SDS011;62555;52.678;4.900;2024-03-02T08:22:04;0.50;;;0.30;;
74196;SDS011;62555;52.678;4.900;2024-03-02T08:24:29;0.60;;;0.60;;
74196;SDS011;62555;52.678;4.900;2024-03-02T08:26:54;1.40;;;0.30;;
74196;SDS011;62555;52.678;4.900;2024-03-02T08:29:19;0.57;;;0.40;;
74196;SDS011;62555;52.678;4.900;2024-03-02T08:31:44;0.73;;;0.30;;
74196;SDS011;62555;52.678;4.900;2024-03-02T08:34:10;1.03;;;0.40;;
74196;SDS011;62555;52.678;4.900;2024-03-02T08:36:35;0.75;;;0.30;;
74196;SDS011;62555;52.678;4.900;2024-03-02T08:39:01;0.35;;;0.35;;
74196;SDS011;62555;52.678;4.900;2024-03-02T08:41:26;0.77;;;0.30;;
74196;SDS011;62555;52.678;4.900;2024-03-02T08:43:51;5.40;;;1.43;;
74196;SDS011;62555;52.678;4.900;2024-03-02T08:46:16;5.23;;;1.57;;
74196;SDS011;62555;52.678;4.900;2024-03-02T08:48:41;2.07;;;0.50;;
74196;SDS011;62555;52.678;4.900;2024-03-02T08:51:06;2.37;;;1.27;;
74196;SDS011;62555;52.678;4.900;2024-03-02T08:53:33;4.93;;;1.15;;
74196;SDS011;62555;52.678;4.900;2024-03-02T08:55:58;3.05;;;1.00;;
74196;SDS011;62555;52.678;4.900;2024-03-02T08:58:24;0.87;;;0.43;;
74196;SDS011;62555;52.678;4.900;2024-03-02T09:00:49;2.53;;;0.80;;
74196;SDS011;62555;52.678;4.900;2024-03-02T09:03:14;4.80;;;1.10;;
74196;SDS011;62555;52.678;4.900;2024-03-02T09:05:40;8.30;;;1.75;;
74196;SDS011;62555;52.678;4.900;2024-03-02T09:08:05;4.90;;;1.03;;
74196;SDS011;62555;52.678;4.900;2024-03-02T09:10:30;4.10;;;0.70;;
74196;SDS011;62555;52.678;4.900;2024-03-02T09:12:55;0.90;;;0.68;;
74196;SDS011;62555;52.678;4.900;2024-03-02T09:15:20;0.77;;;0.50;;
74196;SDS011;62555;52.678;4.900;2024-03-02T09:17:46;2.07;;;0.67;;
74196;SDS011;62555;52.678;4.900;2024-03-02T09:20:11;1.67;;;0.60;;
74196;SDS011;62555;52.678;4.900;2024-03-02T09:22:36;1.30;;;0.60;;
74196;SDS011;62555;52.678;4.900;2024-03-02T09:25:01;1.07;;;0.60;;
74196;SDS011;62555;52.678;4.900;2024-03-02T09:27:26;0.43;;;0.33;;
74196;SDS011;62555;52.678;4.900;2024-03-02T09:29:52;1.47;;;0.47;;
74196;SDS011;62555;52.678;4.900;2024-03-02T09:32:17;1.27;;;0.40;;
74196;SDS011;62555;52.678;4.900;2024-03-02T09:34:42;0.93;;;0.40;;
74196;SDS011;62555;52.678;4.900;2024-03-02T09:37:08;0.70;;;0.40;;
74196;SDS011;62555;52.678;4.900;2024-03-02T09:39:33;0.73;;;0.50;;
74196;SDS011;62555;52.678;4.900;2024-03-02T09:41:59;2.13;;;0.40;;
74196;SDS011;62555;52.678;4.900;2024-03-02T09:44:25;0.95;;;0.38;;
74196;SDS011;62555;52.678;4.900;2024-03-02T09:46:51;1.13;;;0.68;;
74196;SDS011;62555;52.678;4.900;2024-03-02T09:49:16;1.90;;;0.47;;
74196;SDS011;62555;52.678;4.900;2024-03-02T09:51:43;1.53;;;0.50;;
74196;SDS011;62555;52.678;4.900;2024-03-02T09:54:11;0.98;;;0.32;;
74196;SDS011;62555;52.678;4.900;2024-03-02T09:56:36;0.53;;;0.30;;
74196;SDS011;62555;52.678;4.900;2024-03-02T09:59:01;0.82;;;0.40;;
74196;SDS011;62555;52.678;4.900;2024-03-02T10:01:26;1.17;;;0.40;;
74196;SDS011;62555;52.678;4.900;2024-03-02T10:03:52;1.97;;;0.50;;
74196;SDS011;62555;52.678;4.900;2024-03-02T10:06:24;0.50;;;0.22;;
74196;SDS011;62555;52.678;4.900;2024-03-02T10:08:49;0.68;;;0.40;;
74196;SDS011;62555;52.678;4.900;2024-03-02T10:11:34;1.10;;;0.52;;
74196;SDS011;62555;52.678;4.900;2024-03-02T10:16:30;0.68;;;0.38;;
74196;SDS011;62555;52.678;4.900;2024-03-02T10:18:55;1.60;;;0.47;;
74196;SDS011;62555;52.678;4.900;2024-03-02T10:21:20;0.40;;;0.40;;
74196;SDS011;62555;52.678;4.900;2024-03-02T10:23:45;0.98;;;0.60;;
74196;SDS011;62555;52.678;4.900;2024-03-02T10:26:17;0.88;;;0.50;;
74196;SDS011;62555;52.678;4.900;2024-03-02T10:28:46;1.10;;;0.43;;
74196;SDS011;62555;52.678;4.900;2024-03-02T10:31:12;1.25;;;0.60;;
74196;SDS011;62555;52.678;4.900;2024-03-02T10:33:38;3.90;;;0.60;;
74196;SDS011;62555;52.678;4.900;2024-03-02T10:36:03;1.63;;;0.50;;
74196;SDS011;62555;52.678;4.900;2024-03-02T10:38:28;3.95;;;0.50;;
74196;SDS011;62555;52.678;4.900;2024-03-02T10:40:53;2.73;;;0.83;;
74196;SDS011;62555;52.678;4.900;2024-03-02T10:43:20;2.03;;;0.50;;
74196;SDS011;62555;52.678;4.900;2024-03-02T10:45:47;4.05;;;1.02;;
74196;SDS011;62555;52.678;4.900;2024-03-02T10:48:14;4.53;;;1.00;;
74196;SDS011;62555;52.678;4.900;2024-03-02T10:50:39;3.87;;;1.10;;
74196;SDS011;62555;52.678;4.900;2024-03-02T10:53:04;7.30;;;1.77;;
74196;SDS011;62555;52.678;4.900;2024-03-02T10:55:30;4.30;;;1.38;;
74196;SDS011;62555;52.678;4.900;2024-03-02T10:57:56;14.53;;;5.60;;
74196;SDS011;62555;52.678;4.900;2024-03-02T11:00:26;5.68;;;1.70;;
74196;SDS011;62555;52.678;4.900;2024-03-02T11:03:00;5.90;;;1.90;;
74196;SDS011;62555;52.678;4.900;2024-03-02T11:05:27;4.55;;;1.27;;
74196;SDS011;62555;52.678;4.900;2024-03-02T11:07:53;5.20;;;1.70;;
74196;SDS011;62555;52.678;4.900;2024-03-02T11:10:21;3.95;;;1.40;;
74196;SDS011;62555;52.678;4.900;2024-03-02T11:12:55;5.65;;;1.80;;
74196;SDS011;62555;52.678;4.900;2024-03-02T11:15:21;5.93;;;1.65;;
74196;SDS011;62555;52.678;4.900;2024-03-02T11:17:50;5.93;;;1.00;;
74196;SDS011;62555;52.678;4.900;2024-03-02T11:20:16;3.42;;;1.60;;
74196;SDS011;62555;52.678;4.900;2024-03-02T11:22:42;4.50;;;0.93;;
74196;SDS011;62555;52.678;4.900;2024-03-02T11:25:22;3.92;;;1.00;;
74196;SDS011;62555;52.678;4.900;2024-03-02T11:32:56;3.28;;;1.00;;
74196;SDS011;62555;52.678;4.900;2024-03-02T11:35:21;4.50;;;1.13;;
74196;SDS011;62555;52.678;4.900;2024-03-02T11:37:48;2.92;;;0.95;;
74196;SDS011;62555;52.678;4.900;2024-03-02T11:40:14;3.58;;;0.90;;
74196;SDS011;62555;52.678;4.900;2024-03-02T11:42:39;2.97;;;0.83;;
74196;SDS011;62555;52.678;4.900;2024-03-02T11:45:05;13.93;;;3.42;;
74196;SDS011;62555;52.678;4.900;2024-03-02T11:47:33;3.13;;;1.27;;
74196;SDS011;62555;52.678;4.900;2024-03-02T11:49:58;2.23;;;0.80;;
74196;SDS011;62555;52.678;4.900;2024-03-02T11:52:24;1.57;;;0.57;;
74196;SDS011;62555;52.678;4.900;2024-03-02T11:54:50;2.30;;;0.98;;
74196;SDS011;62555;52.678;4.900;2024-03-02T11:57:19;2.25;;;0.60;;
74196;SDS011;62555;52.678;4.900;2024-03-02T11:59:45;1.25;;;0.55;;
74196;SDS011;62555;52.678;4.900;2024-03-02T12:02:17;1.20;;;0.60;;
74196;SDS011;62555;52.678;4.900;2024-03-02T12:04:43;3.00;;;0.60;;
74196;SDS011;62555;52.678;4.900;2024-03-02T12:07:08;3.55;;;1.10;;
74196;SDS011;62555;52.678;4.900;2024-03-02T12:09:33;2.75;;;0.90;;
74196;SDS011;62555;52.678;4.900;2024-03-02T12:12:08;2.17;;;0.70;;
74196;SDS011;62555;52.678;4.900;2024-03-02T12:14:35;1.40;;;0.60;;
74196;SDS011;62555;52.678;4.900;2024-03-02T12:17:01;2.58;;;0.73;;
74196;SDS011;62555;52.678;4.900;2024-03-02T12:19:26;1.83;;;1.15;;
74196;SDS011;62555;52.678;4.900;2024-03-02T12:21:52;1.75;;;0.63;;
74196;SDS011;62555;52.678;4.900;2024-03-02T12:24:18;2.70;;;0.70;;
74196;SDS011;62555;52.678;4.900;2024-03-02T12:26:43;2.00;;;0.60;;
74196;SDS011;62555;52.678;4.900;2024-03-02T12:29:08;1.27;;;0.50;;
74196;SDS011;62555;52.678;4.900;2024-03-02T12:31:34;2.63;;;0.77;;
74196;SDS011;62555;52.678;4.900;2024-03-02T12:33:59;6.57;;;1.30;;
74196;SDS011;62555;52.678;4.900;2024-03-02T12:36:24;4.30;;;0.80;;
74196;SDS011;62555;52.678;4.900;2024-03-02T12:38:52;1.77;;;0.60;;
74196;SDS011;62555;52.678;4.900;2024-03-02T12:41:17;0.85;;;0.40;;
74196;SDS011;62555;52.678;4.900;2024-03-02T12:43:43;2.33;;;0.80;;
74196;SDS011;62555;52.678;4.900;2024-03-02T12:46:08;2.03;;;0.60;;
74196;SDS011;62555;52.678;4.900;2024-03-02T12:48:34;1.60;;;0.80;;
74196;SDS011;62555;52.678;4.900;2024-03-02T12:50:59;1.67;;;0.65;;
74196;SDS011;62555;52.678;4.900;2024-03-02T12:53:25;3.42;;;0.93;;
74196;SDS011;62555;52.678;4.900;2024-03-02T12:55:50;3.47;;;1.23;;
74196;SDS011;62555;52.678;4.900;2024-03-02T12:58:16;2.65;;;0.80;;
74196;SDS011;62555;52.678;4.900;2024-03-02T13:00:42;1.40;;;0.80;;
74196;SDS011;62555;52.678;4.900;2024-03-02T13:03:07;1.37;;;0.40;;
74196;SDS011;62555;52.678;4.900;2024-03-02T13:05:32;1.63;;;0.57;;
74196;SDS011;62555;52.678;4.900;2024-03-02T13:07:58;1.60;;;0.40;;
74196;SDS011;62555;52.678;4.900;2024-03-02T13:10:24;2.35;;;0.80;;
74196;SDS011;62555;52.678;4.900;2024-03-02T13:12:49;2.87;;;0.80;;
74196;SDS011;62555;52.678;4.900;2024-03-02T13:15:15;4.72;;;1.42;;
74196;SDS011;62555;52.678;4.900;2024-03-02T13:17:40;3.43;;;0.67;;
74196;SDS011;62555;52.678;4.900;2024-03-02T13:20:05;2.17;;;0.80;;
74196;SDS011;62555;52.678;4.900;2024-03-02T13:22:35;1.58;;;0.47;;
74196;SDS011;62555;52.678;4.900;2024-03-02T13:25:00;2.53;;;0.68;;
74196;SDS011;62555;52.678;4.900;2024-03-02T13:27:28;1.95;;;0.60;;
74196;SDS011;62555;52.678;4.900;2024-03-02T13:29:53;1.57;;;0.90;;
74196;SDS011;62555;52.678;4.900;2024-03-02T13:32:19;1.70;;;0.43;;
74196;SDS011;62555;52.678;4.900;2024-03-02T13:34:48;1.17;;;0.70;;
74196;SDS011;62555;52.678;4.900;2024-03-02T13:37:14;1.98;;;0.90;;
74196;SDS011;62555;52.678;4.900;2024-03-02T13:39:39;1.50;;;0.60;;
74196;SDS011;62555;52.678;4.900;2024-03-02T13:42:08;1.48;;;0.60;;
74196;SDS011;62555;52.678;4.900;2024-03-02T13:44:33;0.95;;;0.50;;
74196;SDS011;62555;52.678;4.900;2024-03-02T13:46:59;0.80;;;0.50;;
74196;SDS011;62555;52.678;4.900;2024-03-02T13:49:25;2.20;;;0.65;;
74196;SDS011;62555;52.678;4.900;2024-03-02T13:51:53;1.25;;;0.75;;
74196;SDS011;62555;52.678;4.900;2024-03-02T13:54:20;3.05;;;0.50;;
74196;SDS011;62555;52.678;4.900;2024-03-02T13:56:45;2.27;;;0.60;;
74196;SDS011;62555;52.678;4.900;2024-03-02T13:59:11;2.08;;;0.60;;
74196;SDS011;62555;52.678;4.900;2024-03-02T14:01:36;2.03;;;0.57;;
74196;SDS011;62555;52.678;4.900;2024-03-02T14:04:02;1.13;;;0.60;;
74196;SDS011;62555;52.678;4.900;2024-03-02T14:06:27;2.10;;;1.03;;
74196;SDS011;62555;52.678;4.900;2024-03-02T14:08:52;1.97;;;0.60;;
74196;SDS011;62555;52.678;4.900;2024-03-02T14:11:17;1.20;;;0.50;;
74196;SDS011;62555;52.678;4.900;2024-03-02T14:13:43;0.70;;;0.40;;
74196;SDS011;62555;52.678;4.900;2024-03-02T14:16:09;1.77;;;0.60;;
74196;SDS011;62555;52.678;4.900;2024-03-02T14:18:35;2.45;;;0.63;;
74196;SDS011;62555;52.678;4.900;2024-03-02T14:21:00;2.15;;;0.70;;
74196;SDS011;62555;52.678;4.900;2024-03-02T14:23:26;1.77;;;0.60;;
74196;SDS011;62555;52.678;4.900;2024-03-02T14:25:53;1.20;;;0.90;;
74196;SDS011;62555;52.678;4.900;2024-03-02T14:28:18;0.97;;;0.50;;
74196;SDS011;62555;52.678;4.900;2024-03-02T14:30:44;1.85;;;0.60;;
74196;SDS011;62555;52.678;4.900;2024-03-02T14:33:09;3.57;;;0.90;;
74196;SDS011;62555;52.678;4.900;2024-03-02T14:35:35;3.65;;;1.52;;
74196;SDS011;62555;52.678;4.900;2024-03-02T14:38:01;2.85;;;1.00;;
74196;SDS011;62555;52.678;4.900;2024-03-02T14:40:26;2.80;;;1.63;;
74196;SDS011;62555;52.678;4.900;2024-03-02T14:42:52;2.72;;;1.52;;
74196;SDS011;62555;52.678;4.900;2024-03-02T14:45:18;5.25;;;2.58;;
74196;SDS011;62555;52.678;4.900;2024-03-02T14:47:43;7.32;;;2.47;;
74196;SDS011;62555;52.678;4.900;2024-03-02T14:50:08;3.23;;;1.87;;